Time;durP1;ratioP1;P1;durP2;ratioP2;P2;SDS_P1;SDS_P2;PMS_P1;PMS_P2;Temp;Humidity;BMP_temperature;BMP_pressure;BME280_temperature;BME280_humidity;BME280_pressure;Samples;Min_cycle;Max_cycle;Signal;HPM_P1;HPM_P2
2022/11/05 00:10:17;;;;;;;17.27;7.28;;;;;;;2.89;100.00;101109.38;2078785;28;37095;-75
2022/11/05 00:16:42;;;;;;;21.52;7.03;;;;;;;2.88;100.00;101108.50;2079380;28;37233;-76
2022/11/05 00:16:44;;;;;;;15.60;7.45;;;;;;;2.74;100.00;101115.38;2079490;28;38963;-75
2022/11/05 00:17:46;;;;;;;20.67;8.68;;;;;;;2.73;100.00;101113.59;2078724;28;34555;-75
2022/11/05 00:19:05;;;;;;;19.98;7.90;;;;;;;2.70;100.00;101109.16;2079030;28;28150;-75
2022/11/05 00:20:12;;;;;;;25.23;8.25;;;;;;;2.70;100.00;101118.88;2080458;28;20951;-76
2022/11/05 00:25:15;;;;;;;;;;;;;;;2.67;100.00;101124.97;2081035;28;20042;-75
2022/11/05 00:26:19;;;;;;;19.15;7.90;;;;;;;2.71;100.00;101120.63;2079940;28;21839;-75
2022/11/05 00:27:23;;;;;;;14.90;7.65;;;;;;;2.71;100.00;101124.19;2079521;28;35440;-75
2022/11/05 00:28:27;;;;;;;17.23;8.20;;;;;;;2.68;100.00;101117.06;2079615;28;27536;-75
2022/11/05 00:29:29;;;;;;;21.95;8.75;;;;;;;2.75;100.00;101127.75;2080208;28;20046;-76
2022/11/05 00:30:31;;;;;;;26.10;9.75;;;;;;;2.73;100.00;101119.78;2079941;28;20911;-76
2022/11/05 00:31:33;;;;;;;21.02;9.48;;;;;;;2.74;100.00;101123.31;2079619;28;33111;-76
2022/11/05 00:32:37;;;;;;;22.40;9.30;;;;;;;2.85;100.00;101124.31;2079321;28;37208;-73
2022/11/05 00:33:41;;;;;;;23.23;10.70;;;;;;;2.93;100.00;101127.94;2079428;28;36331;-75
2022/11/05 00:34:45;;;;;;;26.48;10.18;;;;;;;2.86;100.00;101126.09;2079296;28;20034;-74
2022/11/05 00:37:16;;;;;;;23.83;10.50;;;;;;;2.94;100.00;101129.69;2070837;28;35388;-76
2022/11/05 00:38:18;;;;;;;28.70;9.93;;;;;;;2.86;100.00;101134.03;2072249;28;20035;-76
2022/11/05 00:39:22;;;;;;;20.05;9.43;;;;;;;2.90;100.00;101135.84;2072499;28;31747;-76
2022/11/05 00:40:23;;;;;;;27.80;11.25;;;;;;;2.89;100.00;101133.16;2072501;28;28325;-76
2022/11/05 00:41:25;;;;;;;27.15;12.27;;;;;;;2.86;100.00;101144.63;2063717;28;37752;-76
2022/11/05 00:45:10;;;;;;;;;;;;;;;2.80;100.00;101137.50;2073118;28;36165;-77
2022/11/05 00:46:12;;;;;;;21.60;8.23;;;;;;;2.76;100.00;101142.72;2073156;28;28391;-77
2022/11/05 00:49:54;;;;;;;22.38;8.93;;;;;;;2.94;100.00;101157.91;2072797;28;36713;-77
2022/11/05 00:50:56;;;;;;;26.65;9.93;;;;;;;2.94;100.00;101164.09;2071894;28;35923;-77
2022/11/05 00:52:54;;;;;;;26.00;10.50;;;;;;;3.06;100.00;101156.28;2072140;28;30978;-77
2022/11/05 00:53:19;;;;;;;22.75;9.20;;;;;;;3.06;100.00;101156.28;2072304;28;35108;-77
2022/11/05 00:54:21;;;;;;;23.98;9.32;;;;;;;3.05;100.00;101159.84;2075449;28;20052;-77
2022/11/05 00:55:44;;;;;;;25.58;9.02;;;;;;;3.05;100.00;101164.22;2079862;28;35435;-76
2022/11/05 00:56:46;;;;;;;24.48;10.40;;;;;;;3.02;100.00;101159.78;2080125;28;40954;-77
2022/11/05 00:57:48;;;;;;;24.08;9.15;;;;;;;3.00;100.00;101161.53;2080476;28;28800;-77
2022/11/05 00:58:49;;;;;;;20.75;8.52;;;;;;;2.99;100.00;101162.38;2072635;28;38808;-77
2022/11/05 00:59:51;;;;;;;22.58;9.15;;;;;;;2.97;100.00;101150.91;2073331;28;20034;-77
2022/11/05 01:00:56;;;;;;;29.95;9.05;;;;;;;2.98;100.00;101152.69;2072774;28;29887;-76
2022/11/05 01:01:58;;;;;;;25.75;9.55;;;;;;;2.98;100.00;101155.34;2072371;28;33030;-77
2022/11/05 01:03:05;;;;;;;17.30;7.80;;;;;;;2.96;100.00;101150.88;2072822;28;31169;-76
2022/11/05 01:04:07;;;;;;;22.25;7.68;;;;;;;2.90;100.00;101154.34;2071916;28;33735;-77
2022/11/05 01:05:09;;;;;;;18.42;7.80;;;;;;;2.86;100.00;101160.47;2072549;28;20097;-77
2022/11/05 01:06:15;;;;;;;19.38;8.02;;;;;;;2.80;100.00;101158.66;2072681;28;36432;-76
2022/11/05 01:07:17;;;;;;;23.30;8.25;;;;;;;2.79;100.00;101162.16;2074102;28;38043;-77
2022/11/05 01:08:22;;;;;;;30.17;8.50;;;;;;;2.78;100.00;101162.13;2072467;28;31738;-77
2022/11/05 01:09:23;;;;;;;22.17;8.23;;;;;;;2.73;100.00;101156.81;2071873;28;31806;-77
2022/11/05 01:10:26;;;;;;;18.65;7.97;;;;;;;2.68;100.00;101147.91;2072615;28;35009;-77
2022/11/05 01:11:35;;;;;;;22.27;7.65;;;;;;;2.64;100.00;101156.69;2072836;28;35037;-77
2022/11/05 01:12:37;;;;;;;20.38;8.15;;;;;;;2.62;100.00;101155.75;2072493;28;31420;-77
2022/11/05 01:13:39;;;;;;;21.02;7.07;;;;;;;2.60;100.00;101149.56;2073038;28;27197;-76
2022/11/05 01:14:41;;;;;;;16.70;7.35;;;;;;;2.58;100.00;101154.81;2072586;28;32325;-77
2022/11/05 01:15:46;;;;;;;21.80;8.20;;;;;;;2.58;100.00;101151.31;2072841;28;20050;-77
2022/11/05 01:16:48;;;;;;;22.77;8.25;;;;;;;2.55;100.00;101157.44;2072308;28;30123;-77
2022/11/05 01:17:52;;;;;;;23.75;7.45;;;;;;;2.54;100.00;101154.78;2072833;28;32103;-77
2022/11/05 01:18:54;;;;;;;20.23;8.13;;;;;;;2.51;100.00;101152.97;2079947;28;36480;-76
2022/11/05 01:19:56;;;;;;;15.50;6.90;;;;;;;2.48;100.00;101156.47;2080413;28;20116;-76
2022/11/05 01:20:57;;;;;;;20.85;7.95;;;;;;;2.46;100.00;101155.56;2071904;28;37059;-77
2022/11/05 01:21:59;;;;;;;23.13;8.02;;;;;;;2.43;100.00;101158.16;2073029;28;20120;-77
2022/11/05 01:23:03;;;;;;;16.55;7.95;;;;;;;2.42;100.00;101156.41;2071744;28;32779;-76
2022/11/05 01:24:09;;;;;;;23.42;9.20;;;;;;;2.40;100.00;101154.59;2072724;28;38443;-76
2022/11/05 01:25:11;;;;;;;22.23;8.55;;;;;;;2.40;100.00;101163.38;2071513;28;20482;-76
2022/11/05 01:26:13;;;;;;;17.27;7.68;;;;;;;2.40;100.00;101160.75;2071695;28;38867;-76
2022/11/05 01:27:17;;;;;;;20.65;9.02;;;;;;;2.44;100.00;101151.09;2072889;28;20105;-76
2022/11/05 01:28:19;;;;;;;24.02;9.75;;;;;;;2.45;100.00;101160.81;2072303;28;36853;-77
2022/11/05 01:29:21;;;;;;;21.10;8.52;;;;;;;2.44;100.00;101164.31;2071587;28;37039;-76
2022/11/05 01:30:22;;;;;;;20.98;9.25;;;;;;;2.47;100.00;101157.31;2072460;28;26821;-77
2022/11/05 01:31:25;;;;;;;16.50;7.97;;;;;;;2.44;100.00;101162.59;2071640;28;33185;-77
2022/11/05 01:32:26;;;;;;;27.23;9.57;;;;;;;2.45;100.00;101160.81;2071428;28;20042;-76
2022/11/05 01:33:28;;;;;;;22.52;8.85;;;;;;;2.42;100.00;101160.78;2072051;28;38732;-76
2022/11/05 01:34:31;;;;;;;22.08;8.00;;;;;;;2.41;100.00;101164.31;2072264;28;20042;-76
2022/11/05 01:35:32;;;;;;;21.70;8.07;;;;;;;2.40;100.00;101163.38;2072090;28;30895;-77
2022/11/05 01:36:34;;;;;;;24.70;8.73;;;;;;;2.41;100.00;101165.19;2072252;28;32857;-77
2022/11/05 01:37:37;;;;;;;18.10;8.73;;;;;;;2.40;100.00;101155.47;2072414;28;20046;-77
2022/11/05 01:38:38;;;;;;;27.33;9.07;;;;;;;2.38;100.00;101158.97;2072520;28;29913;-77
2022/11/05 01:39:40;;;;;;;26.05;9.07;;;;;;;2.39;100.00;101164.28;2071982;28;38296;-77
2022/11/05 01:40:42;;;;;;;23.92;9.32;;;;;;;2.41;100.00;101165.19;2072551;28;32344;-76
2022/11/05 01:41:44;;;;;;;25.38;8.57;;;;;;;2.40;100.00;101166.03;2072247;28;38654;-77
2022/11/05 01:42:46;;;;;;;24.88;8.45;;;;;;;2.39;100.00;101159.00;2072494;28;27378;-77
2022/11/05 01:43:53;;;;;;;24.17;8.30;;;;;;;2.39;100.00;101160.75;2073245;28;20042;-77
2022/11/05 01:45:00;;;;;;;24.80;9.30;;;;;;;2.42;100.00;101163.41;2072335;28;36567;-77
2022/11/05 01:46:02;;;;;;;22.73;8.77;;;;;;;2.42;100.00;101163.41;2080143;28;38668;-77
2022/11/05 01:47:03;;;;;;;25.15;9.60;;;;;;;2.45;100.00;101161.72;2078389;28;26600;-77
2022/11/05 01:48:17;;;;;;;23.15;9.02;;;;;;;2.42;100.00;101160.78;2070666;28;24092;-76
2022/11/05 01:49:30;;;;;;;30.35;9.18;;;;;;;2.39;100.00;101159.00;2078737;28;20038;-76
2022/11/05 01:50:41;;;;;;;22.05;8.95;;;;;;;2.40;100.00;101160.75;2076845;28;25640;-77
2022/11/05 01:51:45;;;;;;;16.48;7.65;;;;;;;2.39;100.00;101151.06;2073510;28;39813;-77
2022/11/05 01:52:51;;;;;;;23.58;8.18;;;;;;;2.36;100.00;101158.06;2072006;28;20144;-76
2022/11/05 01:54:09;;;;;;;24.20;8.48;;;;;;;2.35;100.00;101153.63;2071315;28;31821;-76
2022/11/05 01:55:14;;;;;;;25.40;9.57;;;;;;;2.37;100.00;101154.53;2072612;28;24388;-76
2022/11/05 01:56:23;;;;;;;26.80;8.60;;;;;;;2.35;100.00;101156.28;2080302;28;30820;-76
2022/11/05 01:57:26;;;;;;;19.40;7.88;;;;;;;2.35;100.00;101153.63;2077563;28;38323;-76
2022/11/05 01:58:40;;;;;;;22.85;8.60;;;;;;;2.32;100.00;101154.50;2071324;28;30127;-76
2022/11/05 01:59:53;;;;;;;24.83;8.88;;;;;;;2.36;100.00;101158.06;2078877;28;31322;-76
2022/11/05 02:00:55;;;;;;;27.58;9.52;;;;;;;2.34;100.00;101155.41;2069352;28;20047;-76
2022/11/05 02:01:58;;;;;;;22.55;9.68;;;;;;;2.41;100.00;101153.72;2064887;28;20051;-76
2022/11/05 02:03:00;;;;;;;24.50;9.65;;;;;;;2.44;100.00;101143.19;2068376;28;21517;-76
2022/11/05 02:04:09;;;;;;;26.58;10.13;;;;;;;2.45;100.00;101156.41;2080137;28;28016;-76
2022/11/05 02:05:13;;;;;;;24.55;10.32;;;;;;;2.42;100.00;101155.50;2078396;28;38685;-76
2022/11/05 02:06:16;;;;;;;21.98;9.55;;;;;;;2.41;100.00;101159.00;2072567;28;20924;-76
2022/11/05 02:07:20;;;;;;;30.67;10.38;;;;;;;2.44;100.00;101159.03;2072435;28;30210;-76
2022/11/05 02:08:45;;;;;;;33.13;10.77;;;;;;;2.46;100.00;101162.63;2071679;28;30364;-76
2022/11/05 02:09:58;;;;;;;28.25;10.25;;;;;;;2.51;100.00;101155.59;2079698;28;30663;-76
2022/11/05 02:11:00;;;;;;;26.05;10.38;;;;;;;2.44;100.00;101164.31;2077516;28;36029;-76
2022/11/05 02:12:02;;;;;;;27.65;10.73;;;;;;;2.57;100.00;101168.94;2080247;28;22044;-76
2022/11/05 02:13:04;;;;;;;30.70;10.50;;;;;;;2.54;100.00;101168.88;2078780;28;29963;-76
2022/11/05 02:14:10;;;;;;;27.38;12.05;;;;;;;2.56;100.00;101164.50;2063057;28;33381;-76
2022/11/05 02:15:29;;;;;;;25.50;11.15;;;;;;;2.53;100.00;101161.84;2071440;28;35001;-76
2022/11/05 02:16:45;;;;;;;27.42;10.40;;;;;;;2.44;100.00;101169.59;2080226;28;23067;-76
2022/11/05 02:18:19;;;;;;;27.42;10.95;;;;;;;2.43;100.00;101163.44;2076679;28;20036;-76
2022/11/05 02:19:55;;;;;;;24.58;10.27;;;;;;;2.39;100.00;101161.63;2079585;28;29802;-76
2022/11/05 02:21:32;;;;;;;30.50;9.57;;;;;;;2.35;100.00;101174.75;2075686;28;20904;-76
2022/11/05 02:23:17;;;;;;;32.58;10.43;;;;;;;2.38;100.00;101164.25;2074260;28;30635;-76
2022/11/05 02:25:14;;;;;;;22.23;9.38;;;;;;;2.32;100.00;101166.81;2070114;28;36807;-76
2022/11/05 02:26:50;;;;;;;25.17;8.40;;;;;;;2.29;100.00;101165.88;2072001;28;32189;-76
2022/11/05 02:28:22;;;;;;;27.90;9.82;;;;;;;2.26;100.00;101165.84;2072489;28;27614;-76
2022/11/05 02:30:02;;;;;;;25.45;9.50;;;;;;;2.26;100.00;101164.94;2072261;28;27749;-76
2022/11/05 02:31:21;;;;;;;27.92;8.40;;;;;;;2.21;100.00;101175.47;2072000;28;34068;-76
2022/11/05 02:32:54;;;;;;;26.55;9.27;;;;;;;2.25;100.00;101169.34;2071974;28;31374;-76
2022/11/05 02:34:22;;;;;;;20.88;9.48;;;;;;;2.16;100.00;101166.59;2072866;28;20038;-75
2022/11/05 02:35:54;;;;;;;31.45;9.40;;;;;;;2.18;100.00;101177.16;2071462;28;34099;-76
2022/11/05 02:37:36;;;;;;;27.40;10.00;;;;;;;2.15;100.00;101171.84;2072766;28;20918;-76
2022/11/05 02:39:18;;;;;;;21.27;7.85;;;;;;;2.09;100.00;101173.50;2071715;28;37913;-75
2022/11/05 02:40:56;;;;;;;20.05;8.45;;;;;;;2.05;100.00;101179.63;2063369;28;32127;-76
2022/11/05 02:42:15;;;;;;;23.67;8.88;;;;;;;1.98;100.00;101172.47;2063402;28;35409;-76
2022/11/05 02:43:30;;;;;;;15.00;8.05;;;;;;;1.96;100.00;101176.84;2071207;28;33839;-75
2022/11/05 02:44:49;;;;;;;23.23;9.02;;;;;;;1.96;100.00;101181.25;2068189;28;34349;-76
2022/11/05 02:46:19;;;;;;;22.58;8.43;;;;;;;1.90;100.00;101182.91;2066148;28;32258;-77
2022/11/05 02:47:42;;;;;;;28.38;9.52;;;;;;;1.86;100.00;101178.41;2066454;28;31634;-75
2022/11/05 02:49:17;;;;;;;22.48;8.60;;;;;;;1.83;100.00;101175.75;2064621;28;20129;-76
2022/11/05 02:50:53;;;;;;;22.00;8.00;;;;;;;1.83;100.00;101183.69;2071408;28;35659;-76
2022/11/05 02:52:08;;;;;;;20.30;8.10;;;;;;;1.82;100.00;101176.59;2063885;28;20126;-76
2022/11/05 02:53:34;;;;;;;18.23;8.63;;;;;;;1.82;100.00;101181.00;2068431;28;40972;-76
2022/11/05 02:55:08;;;;;;;18.30;8.35;;;;;;;1.85;100.00;101181.94;2067743;28;20043;-76
2022/11/05 02:56:38;;;;;;;24.92;7.43;;;;;;;1.83;100.00;101180.13;2071586;28;34144;-76
2022/11/05 02:57:45;;;;;;;18.27;8.77;;;;;;;1.87;100.00;101177.56;2064670;28;32877;-76
2022/11/05 02:58:47;;;;;;;22.88;8.90;;;;;;;1.85;100.00;101179.31;2063853;28;38098;-76
2022/11/05 03:00:04;;;;;;;20.90;8.73;;;;;;;1.88;100.00;101175.81;2063936;28;20035;-76
2022/11/05 03:01:09;;;;;;;23.50;9.40;;;;;;;1.85;100.00;101186.34;2084991;28;32029;-76
2022/11/05 03:02:11;;;;;;;29.65;9.65;;;;;;;1.83;100.00;101175.75;2086279;28;31181;-76
2022/11/05 03:03:41;;;;;;;20.63;9.50;;;;;;;1.88;100.00;101173.16;2079846;28;33034;-76
2022/11/05 03:04:43;;;;;;;24.02;9.38;;;;;;;1.87;100.00;101172.28;2080203;28;33761;-76
2022/11/05 03:06:29;;;;;;;24.40;8.90;;;;;;;1.87;100.00;101179.34;2079505;28;37499;-76
2022/11/05 03:07:48;;;;;;;23.48;9.23;;;;;;;1.89;100.00;101183.75;2063881;28;32093;-76
2022/11/05 03:09:16;;;;;;;22.73;8.38;;;;;;;1.86;100.00;101182.81;2062888;28;38422;-76
2022/11/05 03:10:44;;;;;;;30.30;8.77;;;;;;;1.91;100.00;101181.16;2063523;28;32956;-76
2022/11/05 03:12:04;;;;;;;24.30;9.55;;;;;;;1.96;100.00;101183.88;2063133;28;35457;-76
2022/11/05 03:13:24;;;;;;;24.27;9.23;;;;;;;1.90;100.00;101190.84;2063552;28;38882;-75
2022/11/05 03:14:53;;;;;;;24.70;8.75;;;;;;;1.97;100.00;101194.44;2064250;28;34787;-76
2022/11/05 03:16:07;;;;;;;23.80;9.40;;;;;;;1.95;100.00;101184.72;2062992;28;34560;-76
2022/11/05 03:17:39;;;;;;;25.95;9.13;;;;;;;2.02;100.00;101189.25;2065548;28;20824;-76
2022/11/05 03:19:06;;;;;;;22.02;9.90;;;;;;;1.96;100.00;101183.88;2063431;28;33723;-76
2022/11/05 03:20:29;;;;;;;27.75;9.05;;;;;;;1.90;100.00;101188.19;2066520;28;34124;-76
2022/11/05 03:22:00;;;;;;;28.50;9.30;;;;;;;2.01;100.00;101184.81;2063158;28;35931;-76
2022/11/05 03:23:34;;;;;;;23.00;9.35;;;;;;;2.05;100.00;101182.25;2061045;28;37576;-75
2022/11/05 03:24:45;;;;;;;19.85;8.90;;;;;;;2.08;100.00;101174.41;2062093;28;39572;-76
2022/11/05 03:25:56;;;;;;;24.52;8.75;;;;;;;2.00;100.00;101172.50;2056692;28;20055;-76
2022/11/05 03:27:02;;;;;;;25.98;8.70;;;;;;;2.03;100.00;101185.75;2058969;28;31645;-75
2022/11/05 03:28:07;;;;;;;25.80;9.75;;;;;;;2.01;100.00;101184.81;2063400;28;31575;-76
2022/11/05 03:29:21;;;;;;;19.00;8.88;;;;;;;2.04;100.00;101187.50;2063487;28;36925;-76
2022/11/05 03:30:24;;;;;;;22.52;9.55;;;;;;;1.97;100.00;101185.63;2062676;28;39213;-76
2022/11/05 03:31:29;;;;;;;23.85;9.48;;;;;;;2.04;100.00;101184.88;2064941;28;31412;-76
2022/11/05 03:32:37;;;;;;;25.50;9.68;;;;;;;2.03;100.00;101173.44;2063100;28;35335;-76
2022/11/05 03:33:41;;;;;;;23.17;9.48;;;;;;;2.02;100.00;101182.19;2064104;28;38413;-76
2022/11/05 03:34:50;;;;;;;25.65;9.63;;;;;;;2.01;100.00;101174.25;2063666;28;20130;-76
2022/11/05 03:35:57;;;;;;;25.70;9.30;;;;;;;1.94;100.00;101182.94;2063511;28;30385;-76
2022/11/05 03:37:01;;;;;;;23.42;9.20;;;;;;;1.99;100.00;101183.91;2077212;28;33237;-76
2022/11/05 03:38:12;;;;;;;28.55;8.82;;;;;;;1.89;100.00;101181.13;2077062;28;35962;-77
2022/11/05 03:39:23;;;;;;;23.73;9.13;;;;;;;1.89;100.00;101175.84;2078100;28;37636;-76
2022/11/05 03:40:27;;;;;;;23.40;8.10;;;;;;;1.85;100.00;101181.94;2062893;28;29578;-76
2022/11/05 03:41:31;;;;;;;23.20;8.95;;;;;;;1.83;100.00;101188.03;2063426;28;38446;-77
2022/11/05 03:42:37;;;;;;;22.88;9.50;;;;;;;1.86;100.00;101185.47;2070530;28;35184;-76
2022/11/05 03:43:45;;;;;;;29.95;9.93;;;;;;;1.89;100.00;101188.16;2071288;28;20038;-76
2022/11/05 03:44:53;;;;;;;22.75;9.55;;;;;;;1.84;100.00;101182.78;2071666;28;36513;-76
2022/11/05 03:46:28;;;;;;;24.40;8.70;;;;;;;1.90;100.00;101187.28;2071031;28;36095;-76
2022/11/05 03:47:37;;;;;;;22.33;8.68;;;;;;;1.82;100.00;101187.16;2072032;28;29131;-76
2022/11/05 03:48:46;;;;;;;23.70;8.85;;;;;;;1.78;100.00;101187.09;2070674;28;28679;-76
2022/11/05 03:50:08;;;;;;;24.88;8.50;;;;;;;1.75;100.00;101187.91;2056477;28;35826;-76
2022/11/05 03:51:42;;;;;;;18.90;7.88;;;;;;;1.69;100.00;101187.84;2065838;28;32692;-76
2022/11/05 03:52:59;;;;;;;20.65;7.65;;;;;;;1.68;100.00;101186.03;2070557;28;35343;-76
2022/11/05 03:54:05;;;;;;;17.58;7.70;;;;;;;1.67;100.00;101186.88;2071745;28;20054;-76
2022/11/05 03:55:07;;;;;;;18.60;8.45;;;;;;;1.66;100.00;101182.50;2072217;28;30806;-76
2022/11/05 03:56:22;;;;;;;24.35;8.60;;;;;;;1.67;100.00;101181.59;2074058;28;20047;-76
2022/11/05 03:57:30;;;;;;;26.00;8.32;;;;;;;1.63;100.00;101179.78;2079940;28;20042;-76
2022/11/05 03:58:34;;;;;;;24.95;8.40;;;;;;;1.58;100.00;101184.09;2076911;28;34494;-75
2022/11/05 03:59:46;;;;;;;24.38;8.65;;;;;;;1.64;100.00;101192.13;2078805;28;20930;-76
2022/11/05 04:00:49;;;;;;;25.70;8.93;;;;;;;1.61;100.00;101192.94;2077411;28;41312;-76
2022/11/05 04:01:53;;;;;;;26.63;8.45;;;;;;;1.62;100.00;101196.50;2079030;28;33848;-76
2022/11/05 04:02:56;;;;;;;20.95;8.63;;;;;;;1.61;100.00;101189.44;2071658;28;20093;-76
2022/11/05 04:03:58;;;;;;;25.35;9.32;;;;;;;1.62;100.00;101191.22;2071608;28;20113;-76
2022/11/05 04:05:00;;;;;;;21.00;8.35;;;;;;;1.66;100.00;101188.66;2071700;28;35784;-76
2022/11/05 04:14:13;;;;;;;28.02;7.63;;;;;;;1.64;100.00;101192.13;2074161;28;20039;-75
2022/11/05 04:15:15;;;;;;;22.77;8.20;;;;;;;1.61;100.00;101195.59;2072726;28;40025;-75
2022/11/05 04:17:37;;;;;;;24.63;8.38;;;;;;;1.64;100.00;101195.66;2073581;28;20043;-76
2022/11/05 04:18:39;;;;;;;24.92;7.85;;;;;;;1.62;100.00;101191.22;2072100;28;38747;-75
2022/11/05 04:24:07;;;;;;;18.85;8.02;;;;;;;1.50;100.00;101205.94;2072904;28;32924;-75
2022/11/05 04:25:09;;;;;;;24.40;7.97;;;;;;;1.49;100.00;101206.84;2072710;28;34955;-75
2022/11/05 04:26:11;;;;;;;26.05;8.48;;;;;;;1.57;100.00;101209.59;2073127;28;31827;-75
2022/11/05 04:27:13;;;;;;;26.67;9.00;;;;;;;1.54;100.00;101204.25;2072677;28;20140;-75
2022/11/05 04:28:15;;;;;;;21.67;9.15;;;;;;;1.54;100.00;101209.53;2073057;28;20884;-75
2022/11/05 04:30:40;;;;;;;26.58;8.90;;;;;;;1.53;100.00;101200.75;2072304;28;32467;-75
2022/11/05 04:31:41;;;;;;;26.35;8.30;;;;;;;1.51;100.00;101209.50;2072357;28;35606;-75
2022/11/05 04:33:11;;;;;;;21.88;8.77;;;;;;;1.48;100.00;101207.69;2072068;28;29244;-75
2022/11/05 04:34:13;;;;;;;18.05;7.78;;;;;;;1.46;100.00;101205.88;2073526;28;34939;-75
2022/11/05 04:35:15;;;;;;;24.42;8.30;;;;;;;1.42;100.00;101210.22;2072679;28;23265;-74
2022/11/05 04:36:18;;;;;;;22.40;8.70;;;;;;;1.46;100.00;101217.31;2072002;28;34917;-75
2022/11/05 04:37:20;;;;;;;23.20;8.77;;;;;;;1.55;100.00;101213.09;2073037;28;31223;-75
2022/11/05 04:38:21;;;;;;;25.58;8.95;;;;;;;1.58;100.00;101213.13;2073323;28;27272;-75
2022/11/05 04:39:23;;;;;;;24.92;9.18;;;;;;;1.50;100.00;101213.00;2072361;28;26927;-75
2022/11/05 04:40:25;;;;;;;25.13;8.82;;;;;;;1.51;100.00;101215.66;2072385;28;31256;-75
2022/11/05 04:41:29;;;;;;;26.92;8.95;;;;;;;1.52;100.00;101212.13;2072008;28;37147;-75
2022/11/05 04:42:31;;;;;;;25.67;9.43;;;;;;;1.54;100.00;101220.09;2072977;28;31776;-75
2022/11/05 04:43:32;;;;;;;25.90;9.57;;;;;;;1.56;100.00;101225.41;2072552;28;37363;-75
2022/11/05 04:44:34;;;;;;;27.98;9.35;;;;;;;1.53;100.00;101221.84;2072510;28;39574;-75
2022/11/05 04:45:36;;;;;;;25.13;10.00;;;;;;;1.55;100.00;101221.88;2072841;28;28489;-75
2022/11/05 04:46:38;;;;;;;23.70;9.38;;;;;;;1.55;100.00;101218.38;2072400;28;40673;-75
2022/11/05 04:47:40;;;;;;;21.25;9.90;;;;;;;1.50;100.00;101221.78;2072619;28;37070;-75
2022/11/05 04:48:41;;;;;;;20.77;9.35;;;;;;;1.46;100.00;101221.72;2071788;28;32014;-75
2022/11/05 04:49:43;;;;;;;25.98;9.40;;;;;;;1.46;100.00;101230.50;2072605;28;33480;-75
2022/11/05 04:50:45;;;;;;;20.42;9.35;;;;;;;1.45;100.00;101223.44;2073372;28;20566;-75
2022/11/05 04:51:46;;;;;;;25.48;9.73;;;;;;;1.39;100.00;101225.97;2072763;28;20038;-75
2022/11/05 04:52:48;;;;;;;27.70;10.60;;;;;;;1.47;100.00;101228.75;2071987;28;39341;-75
2022/11/05 04:53:50;;;;;;;26.92;10.57;;;;;;;1.42;100.00;101227.78;2072716;28;34809;-75
2022/11/05 04:54:51;;;;;;;26.42;10.20;;;;;;;1.43;100.00;101233.09;2072208;28;26681;-75
2022/11/05 04:55:53;;;;;;;26.40;9.80;;;;;;;1.41;100.00;101228.66;2072650;28;35000;-75
2022/11/05 04:56:55;;;;;;;28.52;10.73;;;;;;;1.39;100.00;101220.69;2073128;28;20137;-75
2022/11/05 04:57:57;;;;;;;30.63;11.30;;;;;;;1.48;100.00;101231.44;2072599;28;39313;-75
2022/11/05 04:58:58;;;;;;;29.55;11.50;;;;;;;1.49;100.00;101233.22;2072585;28;36521;-75
2022/11/05 05:00:00;;;;;;;28.25;10.95;;;;;;;1.45;100.00;101226.09;2072321;28;32646;-75
2022/11/05 05:01:02;;;;;;;30.63;10.48;;;;;;;1.42;100.00;101233.97;2072943;28;36756;-75
2022/11/05 05:02:04;;;;;;;29.40;10.68;;;;;;;1.42;100.00;101233.03;2072170;28;20899;-75
2022/11/05 05:03:05;;;;;;;27.42;11.15;;;;;;;1.39;100.00;101233.00;2072430;28;36019;-75
2022/11/05 05:04:07;;;;;;;33.22;11.50;;;;;;;1.44;100.00;101236.63;2072754;28;30317;-75
2022/11/05 05:05:09;;;;;;;30.58;11.80;;;;;;;1.43;100.00;101235.72;2072645;28;26706;-75
2022/11/05 05:06:14;;;;;;;34.88;11.60;;;;;;;1.39;100.00;101230.38;2072230;28;20034;-75
2022/11/05 05:07:16;;;;;;;31.25;11.93;;;;;;;1.39;100.00;101233.91;2064500;28;20899;-75
2022/11/05 05:08:18;;;;;;;25.98;11.23;;;;;;;1.36;100.00;101228.53;2064201;28;33506;-75
2022/11/05 05:09:20;;;;;;;26.92;11.82;;;;;;;1.36;100.00;101243.50;2064415;28;28799;-75
2022/11/05 05:10:21;;;;;;;26.23;11.63;;;;;;;1.35;100.00;101245.25;2064536;28;34805;-75
2022/11/05 05:11:23;;;;;;;30.50;12.00;;;;;;;1.36;100.00;101249.66;2064281;28;38406;-75
2022/11/05 05:12:25;;;;;;;29.10;11.85;;;;;;;1.41;100.00;101245.34;2064931;28;20047;-75
2022/11/05 05:13:26;;;;;;;31.95;13.30;;;;;;;1.51;100.00;101244.69;2064675;28;31646;-75
2022/11/05 05:14:28;;;;;;;32.45;12.60;;;;;;;1.49;100.00;101248.13;2064411;28;33208;-75
2022/11/05 05:15:30;;;;;;;37.60;13.35;;;;;;;1.67;100.00;101243.22;2064083;28;38044;-74
2022/11/05 05:16:31;;;;;;;37.08;15.43;;;;;;;1.68;100.00;101236.19;2064523;28;33753;-75
2022/11/05 05:17:33;;;;;;;42.25;14.65;;;;;;;1.56;100.00;101243.88;2064840;28;31209;-75
2022/11/05 05:18:35;;;;;;;33.92;14.77;;;;;;;1.58;100.00;101243.06;2064448;28;29483;-75
2022/11/05 05:22:18;;;;;;;36.03;13.65;;;;;;;1.56;100.00;101238.59;2065365;28;20042;-75
2022/11/05 05:23:20;;;;;;;33.97;13.88;;;;;;;1.56;100.00;101239.47;2064450;28;33064;-75
2022/11/05 05:24:23;;;;;;;41.88;15.27;;;;;;;1.61;100.00;101242.22;2063849;28;33369;-75
2022/11/05 05:25:26;;;;;;;36.92;14.77;;;;;;;1.79;100.00;101239.03;2065163;28;20932;-75
2022/11/05 05:26:27;;;;;;;41.90;16.02;;;;;;;1.82;100.00;101234.69;2064248;28;36098;-74
2022/11/05 05:27:30;;;;;;;41.78;16.02;;;;;;;1.75;100.00;101240.72;2064714;28;20125;-75
2022/11/05 05:28:32;;;;;;;39.33;15.18;;;;;;;1.76;100.00;101237.22;2064400;28;30872;-75
2022/11/05 05:29:33;;;;;;;39.17;15.93;;;;;;;1.77;100.00;101238.09;2071414;28;35807;-75
2022/11/05 05:30:35;;;;;;;38.85;14.77;;;;;;;1.71;100.00;101236.25;2071487;28;37770;-75
2022/11/05 05:31:37;;;;;;;41.70;15.88;;;;;;;1.77;100.00;101236.34;2064368;28;33836;-75
2022/11/05 05:32:41;;;;;;;38.17;16.00;;;;;;;1.83;100.00;101233.84;2064123;28;20082;-75
2022/11/05 05:33:43;;;;;;;37.67;15.55;;;;;;;1.74;100.00;101235.41;2063627;28;31929;-75
2022/11/05 05:34:44;;;;;;;38.70;15.90;;;;;;;1.69;100.00;101235.34;2064248;28;28494;-75
2022/11/05 05:35:46;;;;;;;37.33;15.85;;;;;;;1.61;100.00;101229.03;2065073;28;20039;-75
2022/11/05 05:36:48;;;;;;;33.33;15.00;;;;;;;1.59;100.00;101233.38;2068763;28;34069;-75
2022/11/05 05:37:55;;;;;;;32.15;15.18;;;;;;;1.64;100.00;101232.59;2072405;28;35997;-75
2022/11/05 05:38:57;;;;;;;35.35;16.13;;;;;;;1.64;100.00;101237.00;2072692;28;20047;-75
2022/11/05 05:39:59;;;;;;;45.05;16.52;;;;;;;1.60;100.00;101243.06;2070501;28;31454;-75
2022/11/05 05:41:01;;;;;;;33.92;15.55;;;;;;;1.58;100.00;101245.69;2071935;28;31692;-75
2022/11/05 05:42:03;;;;;;;38.60;16.17;;;;;;;1.75;100.00;101242.47;2072543;28;20042;-74
2022/11/05 05:43:04;;;;;;;44.22;16.40;;;;;;;1.71;100.00;101244.16;2071888;28;37669;-75
2022/11/05 05:44:06;;;;;;;42.47;16.80;;;;;;;1.78;100.00;101240.78;2079876;28;29380;-73
2022/11/05 05:45:09;;;;;;;41.78;15.90;;;;;;;1.73;100.00;101244.19;2080581;28;22609;-75
2022/11/05 05:46:16;;;;;;;36.90;15.63;;;;;;;1.73;100.00;101247.72;2071993;28;34306;-75
2022/11/05 05:47:17;;;;;;;38.90;15.45;;;;;;;1.70;100.00;101248.53;2072700;28;27585;-75
2022/11/05 05:48:19;;;;;;;37.85;14.73;;;;;;;1.67;100.00;101248.50;2072155;28;35438;-75
2022/11/05 05:49:21;;;;;;;38.13;15.98;;;;;;;1.62;100.00;101254.56;2072584;28;33280;-75
2022/11/05 05:50:22;;;;;;;38.35;14.25;;;;;;;1.55;100.00;101250.91;2072084;28;20058;-75
2022/11/05 05:51:28;;;;;;;33.97;14.98;;;;;;;1.57;100.00;101250.94;2071832;28;20879;-75
2022/11/05 05:52:30;;;;;;;44.83;15.52;;;;;;;1.52;100.00;101249.09;2071929;28;33792;-75
2022/11/05 05:53:33;;;;;;;35.70;15.10;;;;;;;1.52;100.00;101245.56;2072600;28;27350;-75
2022/11/05 05:54:34;;;;;;;34.75;14.00;;;;;;;1.48;100.00;101249.91;2071416;28;39499;-74
2022/11/05 05:55:41;;;;;;;33.45;14.95;;;;;;;1.48;100.00;101257.81;2072166;28;20034;-75